Time;durP1;ratioP1;P1;durP2;ratioP2;P2;SDS_P1;SDS_P2;PMS_P1;PMS_P2;Temp;Humidity;BMP_temperature;BMP_pressure;BME280_temperature;BME280_humidity;BME280_pressure;Samples;Min_cycle;Max_cycle;Signal;HPM_P1;HPM_P2
2021/04/28 00:01:44;;;;;;;8.05;4.38;;;11.50;53.20;;;;;;5096559;28;20175;-85
2021/04/28 00:04:11;;;;;;;8.80;5.78;;;11.40;53.60;;;;;;5096914;28;20063;-84
2021/04/28 00:06:37;;;;;;;8.00;3.90;;;11.40;52.70;;;;;;5096460;28;20128;-84
2021/04/28 00:09:07;;;;;;;7.82;5.15;;;11.40;55.90;;;;;;5097016;28;20127;-84
2021/04/28 00:11:34;;;;;;;7.82;4.60;;;11.30;53.50;;;;;;5097197;28;20067;-84
2021/04/28 00:14:02;;;;;;;11.10;5.10;;;11.10;53.20;;;;;;5096919;28;20450;-84
2021/04/28 00:16:28;;;;;;;7.72;4.75;;;11.20;53.20;;;;;;5096338;28;20083;-85
2021/04/28 00:18:55;;;;;;;8.90;5.40;;;11.20;53.40;;;;;;5095870;28;20074;-86
2021/04/28 00:21:22;;;;;;;7.95;4.65;;;11.20;53.20;;;;;;5096447;28;20143;-85
2021/04/28 00:23:49;;;;;;;9.98;4.68;;;11.20;54.40;;;;;;5096156;28;20070;-86
2021/04/28 00:26:17;;;;;;;10.38;5.10;;;11.10;54.60;;;;;;5096232;28;20499;-83
2021/04/28 00:28:44;;;;;;;7.28;4.50;;;10.90;53.40;;;;;;5096112;28;20132;-84
2021/04/28 00:31:11;;;;;;;9.23;5.22;;;11.00;55.90;;;;;;5096155;28;20151;-83
2021/04/28 00:33:38;;;;;;;7.38;4.43;;;11.00;53.80;;;;;;5095854;28;20067;-83
2021/04/28 00:36:07;;;;;;;8.88;5.13;;;11.10;55.10;;;;;;5096136;28;20133;-85
2021/04/28 00:38:34;;;;;;;9.80;4.40;;;11.00;54.30;;;;;;5096607;28;20079;-84
2021/04/28 00:41:03;;;;;;;8.40;4.85;;;10.90;56.50;;;;;;5096722;28;20109;-84
2021/04/28 00:43:31;;;;;;;10.55;5.35;;;10.90;57.10;;;;;;5096818;28;20148;-83
2021/04/28 00:45:58;;;;;;;8.23;5.20;;;10.90;55.30;;;;;;5097660;28;20055;-85
2021/04/28 00:48:25;;;;;;;10.13;4.95;;;10.70;54.80;;;;;;5097374;28;20147;-84
2021/04/28 00:50:52;;;;;;;7.50;4.70;;;10.70;55.70;;;;;;5098072;28;20111;-85
2021/04/28 00:53:23;;;;;;;12.65;4.80;;;10.60;56.70;;;;;;5097347;28;20067;-85
2021/04/28 00:55:51;;;;;;;9.02;5.22;;;10.70;54.50;;;;;;5095120;28;20091;-84
2021/04/28 00:58:20;;;;;;;8.88;4.82;;;10.70;55.10;;;;;;5096850;28;20071;-85
2021/04/28 01:00:48;;;;;;;8.05;4.85;;;10.70;54.70;;;;;;5096514;28;20127;-84
2021/04/28 01:03:15;;;;;;;8.00;4.75;;;10.70;56.20;;;;;;5095903;28;20127;-84
2021/04/28 01:05:42;;;;;;;9.27;4.63;;;10.80;56.40;;;;;;5094974;28;20468;-85
2021/04/28 01:08:09;;;;;;;7.40;4.72;;;10.80;55.80;;;;;;5096176;28;20127;-85
2021/04/28 01:10:37;;;;;;;8.85;5.15;;;10.80;56.30;;;;;;5096347;28;20409;-85
2021/04/28 01:13:05;;;;;;;11.23;4.78;;;10.90;57.30;;;;;;5096478;28;20438;-86
2021/04/28 01:15:35;;;;;;;9.10;4.65;;;10.70;57.50;;;;;;5095590;28;20088;-84
2021/04/28 01:18:03;;;;;;;8.43;4.70;;;10.70;58.60;;;;;;5097003;28;20075;-86
2021/04/28 01:20:35;;;;;;;8.55;4.60;;;10.60;59.00;;;;;;5095678;28;20113;-84
2021/04/28 01:23:03;;;;;;;8.35;4.68;;;10.50;59.00;;;;;;5096001;28;20047;-84
2021/04/28 01:25:30;;;;;;;9.07;5.32;;;10.60;59.70;;;;;;5094841;28;20056;-84
2021/04/28 01:28:03;;;;;;;9.35;4.80;;;10.50;58.90;;;;;;5097763;28;20549;-85
2021/04/28 01:30:33;;;;;;;10.48;4.95;;;10.20;58.50;;;;;;5098337;28;20079;-86
2021/04/28 01:33:02;;;;;;;10.00;4.95;;;10.30;60.70;;;;;;5098150;28;20062;-85
2021/04/28 01:35:29;;;;;;;8.40;5.18;;;10.30;60.40;;;;;;5095974;28;20083;-84
2021/04/28 01:37:57;;;;;;;10.00;4.97;;;10.30;61.00;;;;;;5091873;28;20123;-83
2021/04/28 01:40:27;;;;;;;9.90;5.00;;;10.10;60.90;;;;;;5092533;28;20067;-84
2021/04/28 01:42:56;;;;;;;9.43;4.72;;;10.00;60.00;;;;;;5093432;28;20135;-84
2021/04/28 01:45:23;;;;;;;8.98;5.35;;;10.10;61.20;;;;;;5092212;28;20138;-83
2021/04/28 01:47:51;;;;;;;9.40;5.57;;;10.00;60.30;;;;;;5088672;28;20522;-83
2021/04/28 01:50:21;;;;;;;9.73;5.55;;;9.90;60.50;;;;;;5082738;28;20048;-84
2021/04/28 01:52:48;;;;;;;9.93;4.97;;;9.60;59.20;;;;;;5093706;28;20056;-85
2021/04/28 01:55:18;;;;;;;8.52;5.05;;;9.60;61.00;;;;;;5093589;28;20075;-84
2021/04/28 01:57:46;;;;;;;8.20;4.65;;;9.60;61.10;;;;;;5092952;28;20075;-83
2021/04/28 02:00:18;;;;;;;8.73;5.18;;;9.60;60.60;;;;;;5092363;28;20040;-84
2021/04/28 02:02:46;;;;;;;9.77;4.82;;;9.50;60.20;;;;;;5093134;28;20136;-85
2021/04/28 02:05:14;;;;;;;11.15;5.43;;;9.50;60.00;;;;;;5092970;28;20097;-85
2021/04/28 02:07:42;;;;;;;10.20;4.78;;;9.50;60.50;;;;;;5077332;28;20072;-84
2021/04/28 02:10:11;;;;;;;7.72;4.00;;;9.50;61.00;;;;;;5093707;28;20054;-84
2021/04/28 02:12:38;;;;;;;7.90;4.57;;;9.40;62.20;;;;;;5092488;28;20067;-84
2021/04/28 02:15:10;;;;;;;9.27;5.22;;;9.40;63.30;;;;;;5091967;28;20082;-82
2021/04/28 02:17:38;;;;;;;8.65;4.60;;;9.50;63.50;;;;;;5092960;28;20087;-83
2021/04/28 02:20:08;;;;;;;10.65;5.03;;;9.50;63.50;;;;;;5092245;28;20070;-84
2021/04/28 02:22:37;;;;;;;8.20;4.22;;;9.40;63.30;;;;;;5092440;28;20102;-83
2021/04/28 02:25:05;;;;;;;9.27;4.70;;;9.40;64.70;;;;;;5091857;28;20556;-83
2021/04/28 02:27:34;;;;;;;7.65;4.93;;;9.40;65.10;;;;;;5092706;28;20138;-85
2021/04/28 02:30:03;;;;;;;7.85;4.85;;;9.50;65.40;;;;;;5094600;28;20444;-84
2021/04/28 02:32:30;;;;;;;8.25;4.95;;;9.60;65.00;;;;;;5094495;28;20087;-85
2021/04/28 02:34:57;;;;;;;8.02;4.95;;;9.30;64.90;;;;;;5095654;28;20051;-86
2021/04/28 02:37:27;;;;;;;9.80;5.10;;;9.20;65.90;;;;;;5090730;28;20080;-85
2021/04/28 02:40:00;;;;;;;11.05;5.25;;;9.10;63.40;;;;;;5088963;28;20083;-84
2021/04/28 02:42:27;;;;;;;7.85;4.95;;;9.10;64.10;;;;;;5094721;28;20040;-85
2021/04/28 02:44:56;;;;;;;10.43;5.40;;;8.90;64.00;;;;;;5093751;28;20618;-86
2021/04/28 02:47:23;;;;;;;8.82;4.97;;;8.90;64.40;;;;;;5094278;28;20051;-85
2021/04/28 02:49:52;;;;;;;8.35;4.95;;;8.80;65.70;;;;;;5094763;28;20055;-85
2021/04/28 02:52:20;;;;;;;9.68;5.00;;;8.80;65.80;;;;;;5094241;28;20059;-86
2021/04/28 02:54:48;;;;;;;8.50;5.07;;;8.90;65.90;;;;;;5094475;28;20052;-84
2021/04/28 02:57:15;;;;;;;8.27;5.00;;;8.90;66.20;;;;;;5094209;28;20068;-84
2021/04/28 02:59:42;;;;;;;9.55;5.13;;;8.90;66.70;;;;;;5093613;28;20477;-85
2021/04/28 03:02:10;;;;;;;8.45;5.47;;;8.90;67.40;;;;;;5093226;28;20076;-85
2021/04/28 03:04:39;;;;;;;8.52;5.32;;;8.90;67.60;;;;;;5092099;28;20447;-85
2021/04/28 03:07:09;;;;;;;10.35;5.10;;;9.00;66.80;;;;;;5092719;28;20131;-86
2021/04/28 03:09:36;;;;;;;10.60;4.95;;;8.90;67.40;;;;;;5090873;28;20128;-85
2021/04/28 03:12:04;;;;;;;7.72;4.80;;;8.90;67.60;;;;;;5092405;28;20082;-84
2021/04/28 03:14:31;;;;;;;8.30;5.07;;;8.80;68.40;;;;;;5087008;28;20140;-87
2021/04/28 03:16:58;;;;;;;10.13;5.20;;;8.80;69.00;;;;;;5084988;28;20578;-87
2021/04/28 03:19:25;;;;;;;8.43;4.90;;;8.70;68.80;;;;;;5094066;28;20485;-87
2021/04/28 03:21:52;;;;;;;8.30;5.50;;;8.70;70.10;;;;;;5096021;28;20524;-87
2021/04/28 03:24:21;;;;;;;7.60;4.72;;;8.70;69.40;;;;;;5095821;28;20135;-87
2021/04/28 03:26:51;;;;;;;9.55;5.40;;;8.80;70.80;;;;;;5095475;28;20473;-85
2021/04/28 03:29:18;;;;;;;9.18;5.07;;;8.70;69.30;;;;;;5096476;28;20091;-84
2021/04/28 03:31:45;;;;;;;7.97;5.15;;;8.70;69.60;;;;;;5096724;28;20123;-85
2021/04/28 03:34:12;;;;;;;7.97;5.28;;;8.80;69.90;;;;;;5091296;28;20076;-85
2021/04/28 03:36:39;;;;;;;8.63;5.13;;;8.70;69.60;;;;;;5087861;28;20139;-87
2021/04/28 03:39:07;;;;;;;8.48;4.97;;;8.60;70.70;;;;;;5096080;28;20131;-86
2021/04/28 03:41:34;;;;;;;7.90;4.63;;;8.50;71.20;;;;;;5094711;28;20048;-86
2021/04/28 03:44:01;;;;;;;9.98;5.50;;;8.40;71.10;;;;;;5095223;28;20142;-85
2021/04/28 03:46:27;;;;;;;9.18;4.85;;;8.30;71.40;;;;;;5095892;28;20075;-87
2021/04/28 03:48:54;;;;;;;8.40;4.95;;;8.10;71.30;;;;;;5095709;28;20087;-87
2021/04/28 03:51:22;;;;;;;9.32;5.38;;;7.80;71.90;;;;;;5095541;28;20076;-87
2021/04/28 03:53:49;;;;;;;8.18;5.13;;;7.90;73.10;;;;;;5095129;28;20131;-87
2021/04/28 03:56:16;;;;;;;9.82;5.53;;;7.90;72.80;;;;;;5095817;28;20457;-87
2021/04/28 03:58:43;;;;;;;10.75;5.38;;;7.80;71.70;;;;;;5095444;28;20134;-86
2021/04/28 04:01:10;;;;;;;8.88;5.07;;;7.80;72.20;;;;;;5095889;28;20071;-88
2021/04/28 04:03:36;;;;;;;9.77;5.40;;;7.90;73.50;;;;;;5097099;28;20127;-87
2021/04/28 04:06:04;;;;;;;7.90;5.13;;;7.90;73.80;;;;;;5096974;28;20072;-85
2021/04/28 04:08:30;;;;;;;10.85;5.47;;;7.90;74.00;;;;;;5096178;28;20044;-85
2021/04/28 04:10:57;;;;;;;9.35;5.43;;;8.00;73.40;;;;;;5097085;28;20079;-85
2021/04/28 04:13:24;;;;;;;10.10;5.05;;;8.00;74.20;;;;;;5097213;28;20131;-86
2021/04/28 04:15:51;;;;;;;8.88;4.95;;;8.00;74.20;;;;;;5096920;28;20127;-86
2021/04/28 04:18:18;;;;;;;9.07;5.68;;;8.00;74.20;;;;;;5097000;28;20067;-86
2021/04/28 04:20:45;;;;;;;10.40;5.32;;;8.10;73.90;;;;;;5096285;28;20080;-86
2021/04/28 04:23:11;;;;;;;10.15;5.40;;;8.20;73.90;;;;;;5096671;28;20133;-84
2021/04/28 04:25:38;;;;;;;10.50;5.50;;;8.20;73.70;;;;;;5095413;28;20063;-86
2021/04/28 04:28:05;;;;;;;9.00;5.10;;;8.40;74.10;;;;;;5096188;28;20493;-85
2021/04/28 04:30:32;;;;;;;10.13;5.50;;;8.30;73.90;;;;;;5096308;28;20060;-86
2021/04/28 04:32:59;;;;;;;8.98;5.40;;;8.20;73.30;;;;;;5096639;28;20476;-86
2021/04/28 04:35:26;;;;;;;10.27;5.03;;;8.20;73.10;;;;;;5095058;28;20090;-86
2021/04/28 04:37:53;;;;;;;7.90;5.13;;;8.20;73.70;;;;;;5096801;28;20130;-84
2021/04/28 04:40:19;;;;;;;8.70;5.88;;;8.10;74.30;;;;;;5096840;28;20043;-84
2021/04/28 04:42:46;;;;;;;10.48;5.18;;;8.10;72.80;;;;;;5096940;28;20462;-87
2021/04/28 04:45:13;;;;;;;12.63;5.53;;;8.00;72.90;;;;;;5095468;28;20496;-87
2021/04/28 04:47:40;;;;;;;10.38;6.07;;;7.90;73.30;;;;;;5079682;28;20150;-87
2021/04/28 04:50:11;;;;;;;8.23;5.07;;;7.60;74.60;;;;;;5096715;28;20036;-86
2021/04/28 04:52:38;;;;;;;11.98;5.25;;;7.50;75.90;;;;;;5096794;28;20071;-89
2021/04/28 04:55:07;;;;;;;9.60;5.07;;;7.40;76.70;;;;;;5093422;28;20387;-88
2021/04/28 04:57:34;;;;;;;9.10;5.00;;;7.30;77.00;;;;;;5104786;28;20102;-90
2021/04/28 05:00:01;;;;;;;7.88;5.30;;;7.40;77.60;;;;;;5093558;28;20079;-88
2021/04/28 05:02:28;;;;;;;10.40;6.00;;;7.30;78.70;;;;;;5096593;28;20051;-84
2021/04/28 05:04:54;;;;;;;8.05;5.30;;;7.50;79.10;;;;;;5077411;28;20432;-84
2021/04/28 05:07:22;;;;;;;9.65;5.30;;;7.50;78.40;;;;;;5092822;28;20086;-84
2021/04/28 05:09:49;;;;;;;11.57;5.32;;;7.50;78.80;;;;;;5076837;28;20076;-83
2021/04/28 05:12:16;;;;;;;9.48;5.50;;;7.50;78.40;;;;;;5093850;28;20509;-83
2021/04/28 05:14:43;;;;;;;10.23;5.63;;;7.60;79.30;;;;;;5082274;28;20512;-84
2021/04/28 05:17:09;;;;;;;10.25;5.90;;;7.60;79.30;;;;;;5075990;28;20124;-81
2021/04/28 05:19:36;;;;;;;10.98;5.60;;;7.80;79.40;;;;;;5081919;28;20076;-82
2021/04/28 05:22:03;;;;;;;9.68;5.75;;;7.80;79.10;;;;;;5087792;28;20513;-81
2021/04/28 05:24:31;;;;;;;10.30;5.50;;;8.00;79.50;;;;;;5083987;28;20097;-80
2021/04/28 05:26:57;;;;;;;11.48;5.85;;;8.10;79.20;;;;;;5092445;28;20103;-80
2021/04/28 05:29:24;;;;;;;11.40;5.93;;;8.30;79.10;;;;;;5094723;28;20047;-80
2021/04/28 05:31:52;;;;;;;11.65;6.68;;;8.30;77.90;;;;;;5080497;28;20076;-80
2021/04/28 05:34:19;;;;;;;11.05;5.85;;;8.40;77.50;;;;;;5075111;28;20075;-80
2021/04/28 05:36:46;;;;;;;10.57;6.72;;;8.50;77.30;;;;;;5074939;28;20044;-80
2021/04/28 05:39:13;;;;;;;12.40;6.70;;;8.50;77.20;;;;;;5075527;28;20095;-80
2021/04/28 05:41:41;;;;;;;12.23;7.05;;;8.60;77.30;;;;;;5089858;28;20131;-82
2021/04/28 05:44:08;;;;;;;11.43;6.82;;;8.60;77.00;;;;;;5080834;28;20083;-81
2021/04/28 05:46:36;;;;;;;10.98;6.35;;;8.70;77.60;;;;;;5086255;28;20055;-83
2021/04/28 05:49:04;;;;;;;14.77;6.93;;;8.70;77.30;;;;;;5093827;28;20047;-80
2021/04/28 05:51:30;;;;;;;13.00;6.80;;;8.60;77.20;;;;;;5095204;28;20436;-87
2021/04/28 05:53:57;;;;;;;10.93;6.70;;;8.60;77.60;;;;;;5097714;28;20086;-87
2021/04/28 05:56:24;;;;;;;10.63;6.97;;;8.70;77.90;;;;;;5098671;28;20083;-87
2021/04/28 05:58:52;;;;;;;10.38;5.88;;;8.80;76.80;;;;;;5095578;28;20516;-84
2021/04/28 06:01:19;;;;;;;12.77;7.30;;;8.80;77.30;;;;;;5094455;28;20460;-84
2021/04/28 06:03:46;;;;;;;10.50;6.93;;;8.70;78.30;;;;;;5094020;28;20113;-81
2021/04/28 06:06:13;;;;;;;10.15;6.75;;;8.90;78.90;;;;;;5092434;28;20455;-84
2021/04/28 06:08:40;;;;;;;12.45;7.05;;;9.00;77.70;;;;;;5086986;28;20072;-84
2021/04/28 06:11:06;;;;;;;11.05;6.72;;;9.00;76.30;;;;;;5089946;28;20036;-85
2021/04/28 06:13:33;;;;;;;10.32;6.50;;;9.10;76.40;;;;;;5082702;28;20080;-85
2021/04/28 06:16:01;;;;;;;13.45;6.82;;;9.20;75.60;;;;;;5084134;28;20429;-85
2021/04/28 06:18:28;;;;;;;13.85;7.20;;;9.30;76.40;;;;;;5069829;28;20494;-84
2021/04/28 06:20:54;;;;;;;11.13;6.43;;;9.40;75.90;;;;;;5081333;28;20565;-84
2021/04/28 06:23:23;;;;;;;11.30;7.15;;;9.50;75.20;;;;;;5104265;28;20079;-83
2021/04/28 06:25:50;;;;;;;11.70;7.30;;;9.60;75.10;;;;;;5099748;28;20043;-84
2021/04/28 06:28:17;;;;;;;12.13;7.32;;;9.70;75.40;;;;;;5099159;28;20051;-84
2021/04/28 06:30:44;;;;;;;12.63;7.25;;;9.80;75.70;;;;;;5093461;28;20097;-85
2021/04/28 06:33:11;;;;;;;11.65;7.03;;;9.90;75.80;;;;;;5086248;28;20051;-84
2021/04/28 06:35:38;;;;;;;10.90;6.90;;;10.00;73.20;;;;;;5087081;28;20143;-85
2021/04/28 06:38:05;;;;;;;12.80;7.50;;;10.10;72.60;;;;;;5077026;28;20059;-87
2021/04/28 06:40:33;;;;;;;10.60;6.65;;;10.20;73.40;;;;;;5073452;28;20049;-86
2021/04/28 06:43:00;;;;;;;13.38;7.20;;;10.30;72.70;;;;;;5074389;28;20132;-84
2021/04/28 06:45:27;;;;;;;13.82;7.40;;;10.40;72.30;;;;;;5089398;28;20060;-84
2021/04/28 06:47:54;;;;;;;12.10;6.60;;;10.40;72.90;;;;;;5077949;28;20079;-85
2021/04/28 06:50:22;;;;;;;12.68;7.40;;;10.50;72.00;;;;;;5076032;28;20053;-84
2021/04/28 06:52:49;;;;;;;11.45;6.75;;;10.60;71.00;;;;;;5090726;28;20044;-84
2021/04/28 06:55:16;;;;;;;12.00;6.90;;;10.60;71.10;;;;;;5101905;28;20047;-86
2021/04/28 06:57:43;;;;;;;12.80;7.05;;;10.70;71.40;;;;;;5077509;28;20044;-86
2021/04/28 07:00:11;;;;;;;11.57;7.60;;;10.70;71.50;;;;;;5079033;28;20048;-85
2021/04/28 07:02:38;;;;;;;11.02;7.57;;;10.80;72.70;;;;;;5088036;28;20048;-86
2021/04/28 07:05:06;;;;;;;12.23;7.05;;;10.90;72.40;;;;;;5088732;28;20048;-87
2021/04/28 07:07:33;;;;;;;14.35;7.90;;;11.00;71.80;;;;;;5096324;28;20409;-87
2021/04/28 07:10:00;;;;;;;10.15;6.85;;;11.10;72.10;;;;;;5098687;28;20094;-86
2021/04/28 07:12:27;;;;;;;11.45;7.35;;;11.20;71.70;;;;;;5097992;28;20056;-85
2021/04/28 07:14:54;;;;;;;15.65;7.68;;;11.20;71.30;;;;;;5092635;28;20501;-84
2021/04/28 07:17:21;;;;;;;11.90;7.85;;;11.40;70.60;;;;;;5096511;28;20078;-84
2021/04/28 07:19:47;;;;;;;13.32;6.95;;;11.40;70.30;;;;;;5079128;28;20099;-83
2021/04/28 07:22:14;;;;;;;11.63;7.53;;;11.40;71.00;;;;;;5076090;28;20079;-83
2021/04/28 07:24:42;;;;;;;12.75;7.53;;;11.50;71.10;;;;;;5080355;28;20405;-81
2021/04/28 07:27:08;;;;;;;12.05;7.05;;;11.60;70.80;;;;;;5109615;28;20134;-81
2021/04/28 07:29:35;;;;;;;12.23;7.47;;;11.70;70.10;;;;;;5098388;28;20047;-80
2021/04/28 07:32:02;;;;;;;12.52;7.95;;;11.80;70.90;;;;;;5100285;28;20120;-80
2021/04/28 07:34:29;;;;;;;14.07;7.47;;;11.90;70.50;;;;;;5102874;28;20052;-79
2021/04/28 07:36:56;;;;;;;12.05;7.90;;;12.00;71.30;;;;;;5101297;28;20093;-80
2021/04/28 07:39:23;;;;;;;12.38;7.60;;;12.00;70.80;;;;;;5115064;28;20059;-80
2021/04/28 07:41:51;;;;;;;12.82;7.80;;;12.10;70.80;;;;;;5100989;28;20070;-81
2021/04/28 07:44:18;;;;;;;11.10;7.68;;;12.10;70.50;;;;;;5104115;28;20071;-81
2021/04/28 07:46:45;;;;;;;11.30;7.50;;;12.20;70.40;;;;;;5098736;28;20040;-83
2021/04/28 07:49:11;;;;;;;13.02;7.55;;;12.20;70.70;;;;;;5089095;28;20084;-81
2021/04/28 07:51:38;;;;;;;16.80;7.63;;;12.30;70.60;;;;;;5097677;28;20093;-80
2021/04/28 07:54:06;;;;;;;13.50;7.63;;;12.40;70.10;;;;;;5100622;28;20093;-81
2021/04/28 07:56:38;;;;;;;12.35;7.75;;;12.50;69.80;;;;;;5101726;28;20047;-81
2021/04/28 07:59:05;;;;;;;11.38;7.18;;;12.50;69.60;;;;;;5091936;28;20463;-80
2021/04/28 08:01:33;;;;;;;10.60;7.22;;;12.60;69.20;;;;;;5076755;28;20547;-81
2021/04/28 08:04:00;;;;;;;15.30;8.05;;;12.70;69.50;;;;;;5094133;28;20092;-81
2021/04/28 08:06:27;;;;;;;12.73;7.70;;;12.70;69.30;;;;;;5096556;28;20055;-82
2021/04/28 08:08:53;;;;;;;15.02;7.97;;;12.80;69.40;;;;;;5097329;28;20043;-83
2021/04/28 08:11:20;;;;;;;13.27;8.35;;;12.90;69.30;;;;;;5097206;28;20076;-82
2021/04/28 08:13:48;;;;;;;14.65;7.90;;;13.00;68.20;;;;;;5095921;28;20441;-84
2021/04/28 08:16:16;;;;;;;15.00;7.93;;;13.10;67.60;;;;;;5096573;28;20078;-84
2021/04/28 08:18:43;;;;;;;15.38;7.85;;;13.20;67.50;;;;;;5096126;28;20072;-84
2021/04/28 08:21:10;;;;;;;14.02;7.85;;;13.30;66.80;;;;;;5097247;28;20087;-84
2021/04/28 08:23:41;;;;;;;11.77;7.50;;;13.40;66.80;;;;;;5098560;28;20486;-84
2021/04/28 08:26:08;;;;;;;12.95;7.95;;;13.50;66.60;;;;;;5100379;28;20059;-84
2021/04/28 08:28:40;;;;;;;12.50;8.40;;;13.60;66.20;;;;;;5100487;28;20048;-85
2021/04/28 08:31:08;;;;;;;12.27;7.82;;;13.70;66.40;;;;;;5100037;28;20036;-85
2021/04/28 08:33:36;;;;;;;11.73;8.45;;;13.70;66.30;;;;;;5099749;28;20044;-84
2021/04/28 08:36:03;;;;;;;12.52;7.75;;;13.80;65.60;;;;;;5097027;28;20052;-85
2021/04/28 08:38:30;;;;;;;12.30;8.20;;;13.90;66.00;;;;;;5100574;28;20410;-87
2021/04/28 08:40:59;;;;;;;12.65;8.07;;;14.00;65.40;;;;;;5096494;28;20076;-86
2021/04/28 08:43:26;;;;;;;13.15;7.47;;;14.10;66.60;;;;;;5095796;28;20127;-81
2021/04/28 08:45:54;;;;;;;13.90;8.57;;;14.20;66.40;;;;;;5094957;28;20040;-80
2021/04/28 08:48:22;;;;;;;12.48;8.00;;;14.30;65.30;;;;;;5096836;28;20080;-87
2021/04/28 08:50:50;;;;;;;11.98;8.10;;;14.40;66.10;;;;;;5096087;28;20040;-81
2021/04/28 08:53:18;;;;;;;13.27;7.40;;;14.50;65.70;;;;;;5097016;28;20477;-85
2021/04/28 08:55:46;;;;;;;15.82;8.82;;;14.60;65.70;;;;;;5096713;28;20503;-89
2021/04/28 08:58:14;;;;;;;14.73;8.68;;;14.70;65.90;;;;;;5095461;28;20079;-82
2021/04/28 09:00:41;;;;;;;14.23;8.63;;;14.80;65.10;;;;;;5095883;28;20094;-82
2021/04/28 09:03:08;;;;;;;13.95;8.30;;;14.90;64.70;;;;;;5095094;28;20469;-79
2021/04/28 09:05:38;;;;;;;11.43;8.02;;;15.00;64.90;;;;;;5095257;28;20549;-83
2021/04/28 09:08:11;;;;;;;19.33;8.93;;;15.00;64.70;;;;;;5095880;28;20047;-78
2021/04/28 09:10:40;;;;;;;16.17;9.90;;;15.30;71.40;;;;;;5096710;28;20055;-83
2021/04/28 09:13:09;;;;;;;15.07;9.77;;;14.80;65.20;;;;;;5095597;28;20508;-83
2021/04/28 09:15:38;;;;;;;15.88;9.30;;;14.60;67.40;;;;;;5096062;27;20086;-82
2021/04/28 09:18:08;;;;;;;15.77;10.55;;;14.40;68.70;;;;;;5095711;28;20036;-85
2021/04/28 09:20:38;;;;;;;18.70;9.93;;;14.40;67.80;;;;;;5096469;28;20071;-83
2021/04/28 09:23:16;;;;;;;11.15;6.45;;;14.40;68.00;;;;;;5094959;28;20094;-77
2021/04/28 09:25:46;;;;;;;10.02;6.13;;;20.10;60.70;;;;;;5095030;28;20406;-78
2021/04/28 09:28:29;;;;;;;9.65;5.70;;;20.60;56.90;;;;;;5090295;28;20047;-77
2021/04/28 09:31:15;;;;;;;10.43;5.55;;;20.60;51.40;;;;;;5085690;28;20407;-79
2021/04/28 09:33:55;;;;;;;9.07;5.80;;;20.10;50.10;;;;;;5085352;28;20040;-79
2021/04/28 09:36:28;;;;;;;10.18;5.63;;;19.50;50.20;;;;;;5076558;28;20500;-77
2021/04/28 09:38:58;;;;;;;10.02;5.25;;;19.10;50.50;;;;;;5092246;28;20122;-78
2021/04/28 09:41:41;;;;;;;9.20;4.72;;;18.70;51.10;;;;;;5080053;28;20058;-78
2021/04/28 09:44:31;;;;;;;10.55;5.45;;;18.40;51.30;;;;;;5082665;28;20075;-79
2021/04/28 09:47:10;;;;;;;8.68;4.88;;;18.20;51.50;;;;;;5087744;28;20040;-77
2021/04/28 09:49:52;;;;;;;9.73;5.68;;;18.10;50.90;;;;;;5089658;28;20047;-77
2021/04/28 09:52:25;;;;;;;9.55;4.93;;;17.90;49.60;;;;;;5093709;28;20548;-78
2021/04/28 09:54:53;;;;;;;9.35;6.05;;;17.80;48.10;;;;;;5093650;28;20052;-79
2021/04/28 09:57:35;;;;;;;10.40;5.90;;;17.70;49.20;;;;;;5082963;28;20457;-85
2021/04/28 10:00:04;;;;;;;8.10;4.95;;;17.50;49.60;;;;;;5093579;28;20565;-83
2021/04/28 10:02:32;;;;;;;7.93;4.70;;;17.60;49.70;;;;;;5090152;28;20117;-84
2021/04/28 10:05:17;;;;;;;6.88;4.18;;;17.50;49.20;;;;;;5085543;28;20128;-84
2021/04/28 10:07:44;;;;;;;7.00;4.05;;;17.60;44.40;;;;;;5094906;28;20059;-85
2021/04/28 10:10:14;;;;;;;8.52;4.38;;;17.60;43.40;;;;;;5097967;28;20055;-85
2021/04/28 10:12:41;;;;;;;6.38;3.75;;;17.70;42.20;;;;;;5096778;28;20055;-83
2021/04/28 10:15:09;;;;;;;6.25;3.78;;;17.70;41.60;;;;;;5093919;28;20072;-82
2021/04/28 10:17:39;;;;;;;7.80;3.95;;;17.80;41.80;;;;;;5094854;28;20047;-83
2021/04/28 10:20:08;;;;;;;6.28;3.38;;;17.80;41.10;;;;;;5094714;28;20433;-84
2021/04/28 10:22:36;;;;;;;6.95;3.33;;;17.90;40.70;;;;;;5094454;28;20054;-80
2021/04/28 10:25:08;;;;;;;5.32;2.97;;;18.00;40.50;;;;;;5093877;28;20051;-85
2021/04/28 10:27:39;;;;;;;7.25;3.30;;;18.10;40.80;;;;;;5095570;28;20052;-84
2021/04/28 10:30:08;;;;;;;5.50;3.28;;;18.20;40.60;;;;;;5096916;28;20056;-84
2021/04/28 10:32:42;;;;;;;7.15;3.42;;;18.20;40.00;;;;;;5097726;28;20052;-86
2021/04/28 10:35:11;;;;;;;6.40;3.23;;;18.30;39.30;;;;;;5095582;28;20044;-85
2021/04/28 10:37:41;;;;;;;5.00;2.70;;;18.40;37.50;;;;;;5073549;28;20051;-86
2021/04/28 10:40:12;;;;;;;6.32;2.90;;;18.40;37.80;;;;;;5074445;28;20045;-87
2021/04/28 10:42:40;;;;;;;6.00;3.40;;;18.50;38.00;;;;;;5094481;28;20075;-86
2021/04/28 10:45:14;;;;;;;6.32;3.60;;;18.60;39.00;;;;;;5093777;28;20076;-83
2021/04/28 10:47:45;;;;;;;9.05;4.78;;;18.60;39.10;;;;;;5094054;28;20505;-81
2021/04/28 10:50:24;;;;;;;9.20;4.63;;;18.70;38.10;;;;;;5097063;28;20101;-81
2021/04/28 10:52:59;;;;;;;7.80;4.45;;;18.70;38.10;;;;;;5093505;28;20143;-79
2021/04/28 10:55:51;;;;;;;7.78;4.40;;;18.70;37.80;;;;;;5087826;28;20437;-80
2021/04/28 10:58:40;;;;;;;6.07;3.63;;;18.70;38.10;;;;;;5077806;28;20138;-82
2021/04/28 11:01:29;;;;;;;5.70;3.33;;;18.80;38.40;;;;;;5094060;28;20044;-82
2021/04/28 11:03:57;;;;;;;5.30;3.05;;;18.90;38.70;;;;;;5094486;28;20075;-83
2021/04/28 11:06:49;;;;;;;7.13;4.05;;;18.90;37.50;;;;;;5093550;28;20052;-83
2021/04/28 11:09:29;;;;;;;6.55;4.10;;;19.00;36.40;;;;;;5093148;28;20082;-82
2021/04/28 11:12:01;;;;;;;8.82;4.95;;;19.00;37.50;;;;;;5073657;28;20052;-79
2021/04/28 11:14:32;;;;;;;7.60;4.07;;;19.00;38.20;;;;;;5073646;28;20060;-84
2021/04/28 11:17:01;;;;;;;6.65;3.50;;;19.00;38.40;;;;;;5086646;28;20043;-84
2021/04/28 11:19:32;;;;;;;6.72;3.75;;;19.00;38.40;;;;;;5092818;28;20051;-80
2021/04/28 11:22:18;;;;;;;7.45;4.13;;;19.10;38.70;;;;;;5093008;28;20142;-82
2021/04/28 11:25:06;;;;;;;6.70;3.67;;;19.10;38.40;;;;;;5073810;28;20155;-81
2021/04/28 11:28:01;;;;;;;5.28;3.10;;;19.10;38.30;;;;;;5085703;28;20052;-82
2021/04/28 11:30:51;;;;;;;5.85;3.42;;;19.20;38.60;;;;;;5093539;28;20500;-81
2021/04/28 11:33:39;;;;;;;6.65;4.05;;;19.20;39.60;;;;;;5073210;28;20197;-80
2021/04/28 11:36:12;;;;;;;7.97;4.40;;;19.20;40.10;;;;;;5073466;28;20044;-81
2021/04/28 11:38:54;;;;;;;8.32;4.88;;;19.20;41.20;;;;;;5073284;28;20505;-80
2021/04/28 11:41:23;;;;;;;9.25;5.13;;;19.10;41.80;;;;;;5077320;28;20040;-81
2021/04/28 11:43:53;;;;;;;8.38;3.85;;;19.00;43.30;;;;;;5095558;28;20044;-82
2021/04/28 11:46:23;;;;;;;7.75;4.25;;;19.00;43.50;;;;;;5095191;28;20565;-81
2021/04/28 11:48:52;;;;;;;9.13;4.78;;;19.00;44.50;;;;;;5097713;28;20047;-81
2021/04/28 11:51:24;;;;;;;10.07;4.90;;;19.00;45.20;;;;;;5096996;28;20134;-83
2021/04/28 11:53:55;;;;;;;8.93;4.47;;;19.00;45.40;;;;;;5096700;28;20052;-82
2021/04/28 11:56:35;;;;;;;8.30;4.63;;;19.00;45.90;;;;;;5097132;28;20465;-83
2021/04/28 11:59:01;;;;;;;11.27;5.35;;;19.00;46.20;;;;;;5090257;28;20117;-82
2021/04/28 12:01:31;;;;;;;7.72;4.20;;;18.90;46.20;;;;;;5092434;28;20047;-80
2021/04/28 12:04:01;;;;;;;7.78;4.10;;;18.90;46.00;;;;;;5096699;28;20370;-81
2021/04/28 12:06:34;;;;;;;6.75;3.50;;;18.90;46.10;;;;;;5097196;28;20052;-85
2021/04/28 12:09:32;;;;;;;7.13;3.60;;;18.90;46.30;;;;;;5105889;28;20124;-79
2021/04/28 12:12:14;;;;;;;7.50;3.63;;;19.00;47.00;;;;;;5095870;28;20290;-77
2021/04/28 12:14:43;;;;;;;10.32;4.63;;;19.10;48.40;;;;;;5096015;28;20414;-78
2021/04/28 12:17:11;;;;;;;7.85;4.10;;;19.20;47.90;;;;;;5095273;28;20048;-78
2021/04/28 12:19:39;;;;;;;8.05;4.15;;;19.30;47.80;;;;;;5094779;28;20134;-78
2021/04/28 12:22:08;;;;;;;7.45;3.97;;;19.50;47.00;;;;;;5091371;28;20074;-78
2021/04/28 12:24:39;;;;;;;6.80;3.60;;;19.70;46.80;;;;;;5094695;28;20075;-79
2021/04/28 12:27:13;;;;;;;10.02;4.32;;;20.00;46.80;;;;;;5094843;28;20397;-83
2021/04/28 12:29:43;;;;;;;10.02;4.20;;;20.20;46.30;;;;;;5076207;28;20128;-81
2021/04/28 12:32:11;;;;;;;8.55;4.35;;;20.40;44.40;;;;;;5078441;28;20085;-80
2021/04/28 12:34:41;;;;;;;8.93;4.40;;;20.60;42.20;;;;;;5093790;28;20059;-80
2021/04/28 12:37:27;;;;;;;6.43;3.60;;;20.80;42.20;;;;;;5095591;28;20118;-81
2021/04/28 12:40:00;;;;;;;6.65;3.88;;;20.90;42.20;;;;;;5091318;28;20051;-81
2021/04/28 12:42:31;;;;;;;9.60;4.05;;;21.00;42.00;;;;;;5076140;28;20044;-82
2021/04/28 12:45:00;;;;;;;6.68;3.45;;;21.20;41.50;;;;;;5075458;28;20082;-79
2021/04/28 12:47:39;;;;;;;6.05;3.45;;;21.30;41.20;;;;;;5082659;28;20068;-82
2021/04/28 12:50:16;;;;;;;6.88;3.75;;;21.50;41.10;;;;;;5094936;28;20090;-84
2021/04/28 12:52:45;;;;;;;11.07;5.32;;;21.70;41.10;;;;;;5095406;28;20044;-83
2021/04/28 12:55:37;;;;;;;8.70;4.88;;;21.80;41.10;;;;;;5076852;28;20044;-86
2021/04/28 12:58:09;;;;;;;9.02;4.95;;;21.80;40.50;;;;;;5080754;28;20050;-88